Senyomaru — JI3557 — position and weather

sailwx.info

Track history (hours):
 
Tides and Currents Weather Stations Pressure Air Temp Water Temp Dewpoint Dewpoint Depression Visibility Wind Speed Wind Dir Waves Ship Positions

Senyomaru

Last reported at 2017-Aug-17 07:15 UTC. Time now 2017-Aug-17 17:26 UTC.
Position N 34°37' E 134°56'.

Length 69 m; draft 4 m.

Type: Tanker. MMSI: 431300188.

Date/timePositionNaut miles runAvg speedWind from/ knotsBaromVisibWave heightAir tempDewpointWater temp
2017-Aug-17 07:15N 34°37' E 134°56'414.7
2017-Aug-17 06:59N 34°37' E 135°01'612.6
2017-Aug-17 06:29N 34°35' E 135°08'611.8
2017-Aug-17 06:00N 34°35' E 135°15'611.9
2017-Aug-17 05:29N 34°34' E 135°23'2 0.4
2017-Aug-16 22:31N 34°33' E 135°26'0 0.0
2017-Aug-16 22:26N 34°33' E 135°26'1 2.0
2017-Aug-16 22:00N 34°33' E 135°25'1 0.1
2017-Aug-16 10:13N 34°34' E 135°23'0 0.0
2017-Aug-16 09:43N 34°34' E 135°23'0 0.0
2017-Aug-16 09:25N 34°34' E 135°23'0 0.0
2017-Aug-16 09:01N 34°34' E 135°23'0 0.0
2017-Aug-16 04:43N 34°34' E 135°23'0 0.0
2017-Aug-16 04:19N 34°34' E 135°23'0 0.0
2017-Aug-16 03:37N 34°34' E 135°23'0 0.0
2017-Aug-15 22:31N 34°34' E 135°23'0 0.0
2017-Aug-15 21:57N 34°34' E 135°23'2 4.3
2017-Aug-15 21:30N 34°34' E 135°21'612.1
2017-Aug-15 21:00N 34°35' E 135°13'612.6
2017-Aug-15 20:30N 34°35' E 135°06'  
2017-Aug-08 11:01N 34°35' E 134°51'415.5
2017-Aug-08 10:46N 34°36' E 134°55'414.0
2017-Aug-08 10:28N 34°38' E 135°00'613.2
2017-Aug-08 10:00N 34°36' E 135°07'611.4
2017-Aug-08 09:30N 34°35' E 135°14'612.0
2017-Aug-08 09:00N 34°34' E 135°21'4 7.8
2017-Aug-08 08:30N 34°33' E 135°26'0 0.0
2017-Aug-08 00:53N 34°33' E 135°26'1 3.4
2017-Aug-08 00:30N 34°33' E 135°24'611.6
2017-Aug-07 23:58N 34°30' E 135°18'612.4
2017-Aug-07 23:30N 34°27' E 135°12'4 8.7
2017-Aug-07 23:00N 34°23' E 135°10'0 0.0
2017-Aug-07 21:55N 34°23' E 135°10'0 0.0
2017-Aug-07 18:37N 34°23' E 135°10'0 0.0
2017-Aug-07 18:25N 34°23' E 135°10'0 0.0
2017-Aug-07 17:25N 34°23' E 135°10'0 0.0
2017-Aug-07 11:07N 34°23' E 135°10'0 0.0
2017-Aug-07 10:49N 34°23' E 135°10'0 0.0
2017-Aug-07 09:43N 34°23' E 135°10'0 0.0
2017-Aug-07 09:29N 34°23' E 135°10'  
Track history (hours):
 
Tides and Currents Weather Stations Pressure Air Temp Water Temp Dewpoint Dewpoint Depression Visibility Wind Speed Wind Dir Waves Ship Positions

Senyomaru

Last reported at 2017-Aug-17 07:15 UTC. Time now 2017-Aug-17 17:26 UTC.
Position N 34°37' E 134°56'.

Length 69 m; draft 4 m.

Type: Tanker. MMSI: 431300188.

Date/timePositionNaut miles runAvg speedWind from/ knotsBaromVisibWave heightAir tempDewpointWater temp
2017-Aug-17 07:15N 34°37' E 134°56'414.7
2017-Aug-17 06:59N 34°37' E 135°01'612.6
2017-Aug-17 06:29N 34°35' E 135°08'611.8
2017-Aug-17 06:00N 34°35' E 135°15'611.9
2017-Aug-17 05:29N 34°34' E 135°23'2 0.4
2017-Aug-16 22:31N 34°33' E 135°26'0 0.0
2017-Aug-16 22:26N 34°33' E 135°26'1 2.0
2017-Aug-16 22:00N 34°33' E 135°25'1 0.1
2017-Aug-16 10:13N 34°34' E 135°23'0 0.0
2017-Aug-16 09:43N 34°34' E 135°23'0 0.0
2017-Aug-16 09:25N 34°34' E 135°23'0 0.0
2017-Aug-16 09:01N 34°34' E 135°23'0 0.0
2017-Aug-16 04:43N 34°34' E 135°23'0 0.0
2017-Aug-16 04:19N 34°34' E 135°23'0 0.0
2017-Aug-16 03:37N 34°34' E 135°23'0 0.0
2017-Aug-15 22:31N 34°34' E 135°23'0 0.0
2017-Aug-15 21:57N 34°34' E 135°23'2 4.3
2017-Aug-15 21:30N 34°34' E 135°21'612.1
2017-Aug-15 21:00N 34°35' E 135°13'612.6
2017-Aug-15 20:30N 34°35' E 135°06'  
2017-Aug-08 11:01N 34°35' E 134°51'415.5
2017-Aug-08 10:46N 34°36' E 134°55'414.0
2017-Aug-08 10:28N 34°38' E 135°00'613.2
2017-Aug-08 10:00N 34°36' E 135°07'611.4
2017-Aug-08 09:30N 34°35' E 135°14'612.0
2017-Aug-08 09:00N 34°34' E 135°21'4 7.8
2017-Aug-08 08:30N 34°33' E 135°26'0 0.0
2017-Aug-08 00:53N 34°33' E 135°26'1 3.4
2017-Aug-08 00:30N 34°33' E 135°24'611.6
2017-Aug-07 23:58N 34°30' E 135°18'612.4
2017-Aug-07 23:30N 34°27' E 135°12'4 8.7
2017-Aug-07 23:00N 34°23' E 135°10'0 0.0
2017-Aug-07 21:55N 34°23' E 135°10'0 0.0
2017-Aug-07 18:37N 34°23' E 135°10'0 0.0
2017-Aug-07 18:25N 34°23' E 135°10'0 0.0
2017-Aug-07 17:25N 34°23' E 135°10'0 0.0
2017-Aug-07 11:07N 34°23' E 135°10'0 0.0
2017-Aug-07 10:49N 34°23' E 135°10'0 0.0
2017-Aug-07 09:43N 34°23' E 135°10'0 0.0
2017-Aug-07 09:29N 34°23' E 135°10'  

Dump ship's entire track history